Time;durP1;ratioP1;P1;durP2;ratioP2;P2;SDS_P1;SDS_P2;PMS_P1;PMS_P2;Temp;Humidity;BMP_temperature;BMP_pressure;BME280_temperature;BME280_humidity;BME280_pressure;Samples;Min_cycle;Max_cycle;Signal;HPM_P1;HPM_P2
2023/07/03 00:02:56;;;;;;;1999.90;999.90;;;16.80;99.00;;;;;;6698548;88;20232;-76
2023/07/03 00:12:57;;;;;;;1999.90;999.90;;;16.80;99.30;;;;;;6700294;88;20206;-75
2023/07/03 00:22:57;;;;;;;1999.90;999.90;;;16.70;99.70;;;;;;6698921;88;20187;-76
2023/07/03 00:32:58;;;;;;;1999.90;999.90;;;16.40;99.90;;;;;;6701925;88;20408;-76
2023/07/03 00:42:58;;;;;;;1999.90;999.90;;;16.40;99.90;;;;;;6698435;88;20213;-75
2023/07/03 00:53:02;;;;;;;1999.90;999.90;;;16.20;99.90;;;;;;6701502;88;20186;-77
2023/07/03 01:03:14;;;;;;;1999.90;999.90;;;16.10;99.90;;;;;;6695068;88;20233;-77
2023/07/03 01:13:17;;;;;;;1999.90;999.90;;;15.90;99.90;;;;;;6698630;88;20689;-75
2023/07/03 01:23:28;;;;;;;1999.90;999.90;;;15.80;99.90;;;;;;6712967;88;20550;-75
2023/07/03 01:33:33;;;;;;;1999.90;999.90;;;15.60;99.90;;;;;;6706561;88;20278;-75
2023/07/03 01:43:34;;;;;;;;;;;15.50;99.90;;;;;;6696164;88;20225;-76
2023/07/03 01:53:45;;;;;;;1999.90;999.90;;;15.30;99.90;;;;;;6700496;88;20061;-77
2023/07/03 02:04:09;;;;;;;1999.90;999.90;;;15.10;99.90;;;;;;6698674;88;20677;-77
2023/07/03 02:14:09;;;;;;;1999.90;999.90;;;15.00;99.90;;;;;;6701681;88;20255;-77
2023/07/03 02:24:11;;;;;;;1999.90;999.90;;;14.80;99.90;;;;;;6702118;88;20223;-77
2023/07/03 02:34:12;;;;;;;1999.90;999.90;;;14.70;99.90;;;;;;6702667;88;20849;-77
2023/07/03 02:44:13;;;;;;;1999.90;999.90;;;14.50;99.90;;;;;;6698995;88;20318;-77
2023/07/03 02:54:13;;;;;;;1999.90;999.90;;;14.50;99.90;;;;;;6700173;88;20312;-77
2023/07/03 03:04:16;;;;;;;1999.90;999.90;;;14.40;99.90;;;;;;6702183;88;20200;-77
2023/07/03 03:14:16;;;;;;;1999.90;999.90;;;14.30;99.90;;;;;;6699524;88;20190;-77
2023/07/03 03:24:17;;;;;;;1999.90;999.90;;;14.20;99.90;;;;;;6701375;88;20230;-77
2023/07/03 03:34:18;;;;;;;1999.90;999.90;;;14.20;99.90;;;;;;6702085;88;20215;-77
2023/07/03 03:44:18;;;;;;;1999.90;999.90;;;14.10;99.90;;;;;;6703015;88;20190;-77
2023/07/03 03:54:19;;;;;;;1999.90;999.90;;;14.10;99.90;;;;;;6696307;88;20232;-77
2023/07/03 04:04:20;;;;;;;1999.90;999.90;;;14.10;99.90;;;;;;6700700;88;20195;-77
2023/07/03 04:14:20;;;;;;;1999.90;999.90;;;14.10;99.90;;;;;;6700983;88;20368;-77
2023/07/03 04:24:21;;;;;;;1999.90;999.90;;;14.10;99.90;;;;;;6702424;88;20212;-77
2023/07/03 04:34:21;;;;;;;1999.90;999.90;;;14.10;99.90;;;;;;6699104;88;20411;-77
2023/07/03 04:44:22;;;;;;;1999.90;999.90;;;14.20;99.90;;;;;;6700598;88;20353;-77
2023/07/03 04:54:24;;;;;;;1999.90;999.90;;;14.40;99.90;;;;;;6704863;88;20352;-77
2023/07/03 05:04:24;;;;;;;1999.90;999.90;;;14.50;99.90;;;;;;6704314;88;20183;-77
2023/07/03 05:14:24;;;;;;;1999.90;999.90;;;14.70;99.90;;;;;;6697699;88;20265;-77
2023/07/03 05:24:25;;;;;;;1999.90;999.90;;;15.00;99.90;;;;;;6724392;76;20330;-78
2023/07/03 05:34:26;;;;;;;1999.90;999.90;;;15.10;99.90;;;;;;6705856;88;20265;-78
2023/07/03 05:44:27;;;;;;;1999.90;999.90;;;15.40;99.90;;;;;;6698127;88;20216;-78
2023/07/03 05:54:28;;;;;;;1999.90;999.90;;;15.60;99.90;;;;;;6690125;88;20210;-75
2023/07/03 06:04:28;;;;;;;1999.90;999.90;;;15.80;99.90;;;;;;6699823;88;20187;-78
2023/07/03 06:14:30;;;;;;;1999.90;999.90;;;16.00;99.90;;;;;;6698186;88;20694;-76
2023/07/03 06:24:31;;;;;;;1999.90;999.90;;;16.10;99.90;;;;;;6697135;88;20248;-75
2023/07/03 06:34:32;;;;;;;1999.90;999.90;;;16.30;99.90;;;;;;6694943;88;20182;-76
2023/07/03 06:44:33;;;;;;;1999.90;999.90;;;16.30;99.90;;;;;;6690998;88;20699;-76
2023/07/03 06:54:34;;;;;;;1999.90;999.90;;;16.70;99.90;;;;;;6697100;88;20302;-76
2023/07/03 07:04:34;;;;;;;1999.90;999.90;;;16.80;99.90;;;;;;6714232;88;20201;-76
2023/07/03 07:14:35;;;;;;;1999.90;999.90;;;17.10;99.90;;;;;;6705245;88;20198;-76
2023/07/03 07:24:36;;;;;;;1999.90;999.90;;;17.20;99.90;;;;;;6697448;88;20178;-75
2023/07/03 07:34:36;;;;;;;1999.90;999.90;;;17.40;99.90;;;;;;6698748;88;20262;-76
2023/07/03 07:44:38;;;;;;;1999.90;999.90;;;17.70;99.90;;;;;;6701272;88;20626;-76
2023/07/03 07:54:38;;;;;;;1999.90;999.90;;;18.40;99.90;;;;;;6698461;88;20701;-76
2023/07/03 08:04:39;;;;;;;1999.90;999.90;;;18.50;99.90;;;;;;6691567;88;20208;-76
2023/07/03 08:14:39;;;;;;;1999.90;999.90;;;18.20;99.90;;;;;;6695743;88;21182;-76
2023/07/03 08:24:40;;;;;;;1999.90;999.90;;;17.90;99.90;;;;;;6695995;88;20234;-76
2023/07/03 08:34:40;;;;;;;1999.90;999.90;;;18.40;99.90;;;;;;6693991;88;20182;-76
2023/07/03 08:44:41;;;;;;;1999.90;999.90;;;18.90;99.90;;;;;;6692737;88;20186;-76
2023/07/03 08:54:42;;;;;;;1999.90;999.90;;;19.60;99.90;;;;;;6691529;88;20190;-78
2023/07/03 09:05:10;;;;;;;1999.90;999.90;;;20.30;99.90;;;;;;6700418;88;20187;-77
2023/07/03 09:15:21;;;;;;;1999.90;999.90;;;21.10;99.10;;;;;;6698591;88;20209;-77
2023/07/03 09:25:28;;;;;;;1999.90;999.90;;;21.80;95.90;;;;;;6698980;88;20664;-77
2023/07/03 09:35:37;;;;;;;1999.90;999.90;;;23.80;93.20;;;;;;6697950;88;20659;-77
2023/07/03 09:45:38;;;;;;;1999.90;999.90;;;22.00;92.80;;;;;;6696103;88;20211;-76
2023/07/03 09:55:39;;;;;;;1999.90;999.90;;;22.40;92.20;;;;;;6689945;88;20200;-77
2023/07/03 10:05:42;;;;;;;1999.90;999.90;;;23.60;86.50;;;;;;6690423;88;20227;-77
2023/07/03 10:15:43;;;;;;;1999.90;999.90;;;25.40;81.10;;;;;;6690915;88;20215;-77
2023/07/03 10:25:50;;;;;;;1999.90;999.90;;;23.00;81.60;;;;;;6691725;88;20191;-77
2023/07/03 10:35:51;;;;;;;1999.90;999.90;;;22.20;85.30;;;;;;6692430;88;20256;-76
2023/07/03 10:45:54;;;;;;;1999.90;999.90;;;23.70;83.90;;;;;;6694045;88;20197;-77
2023/07/03 10:56:06;;;;;;;1999.90;999.90;;;24.70;82.70;;;;;;6703920;88;20370;-77
2023/07/03 11:06:28;;;;;;;1999.90;999.90;;;25.70;78.40;;;;;;6692122;88;20353;-76
2023/07/03 11:16:38;;;;;;;1999.90;999.90;;;22.90;82.50;;;;;;6696858;88;20632;-77
2023/07/03 11:26:41;;;;;;;1999.90;999.90;;;21.90;84.50;;;;;;6695337;88;20209;-76
2023/07/03 11:36:44;;;;;;;1999.90;999.90;;;22.40;83.90;;;;;;6693815;88;20191;-76
2023/07/03 11:46:51;;;;;;;1999.90;999.90;;;21.60;83.30;;;;;;6696108;88;20218;-77
2023/07/03 11:56:59;;;;;;;1999.90;999.90;;;22.00;85.40;;;;;;6694885;88;20186;-77
2023/07/03 12:07:00;;;;;;;1999.90;999.90;;;23.70;81.90;;;;;;6693911;88;20765;-77
2023/07/03 12:17:00;;;;;;;1999.90;999.90;;;24.00;81.20;;;;;;6693816;88;20261;-77
2023/07/03 12:27:03;;;;;;;1999.90;999.90;;;22.90;82.40;;;;;;6697161;88;20642;-76
2023/07/03 12:37:17;;;;;;;1999.90;999.90;;;23.00;83.90;;;;;;6704259;88;20215;-76
2023/07/03 12:47:20;;;;;;;1999.90;999.90;;;23.70;82.40;;;;;;6698642;88;20187;-77
2023/07/03 12:57:22;;;;;;;1999.90;999.90;;;23.50;82.80;;;;;;6697912;88;20353;-77
2023/07/03 13:07:23;;;;;;;1999.90;999.90;;;24.30;81.80;;;;;;6699706;88;20215;-79
2023/07/03 13:17:30;;;;;;;1999.90;999.90;;;24.10;81.40;;;;;;6696242;88;20210;-77
2023/07/03 13:27:30;;;;;;;1999.90;999.90;;;23.50;82.40;;;;;;6699515;88;20209;-77
2023/07/03 13:37:35;;;;;;;1999.90;999.90;;;24.40;82.00;;;;;;6698123;88;20218;-77
2023/07/03 13:47:36;;;;;;;1999.90;999.90;;;25.10;80.90;;;;;;6692867;88;20258;-78
2023/07/03 13:57:36;;;;;;;1999.90;999.90;;;24.30;82.40;;;;;;6696988;88;20248;-77
2023/07/03 14:07:37;;;;;;;1999.90;999.90;;;25.30;81.50;;;;;;6694132;88;20181;-77
2023/07/03 14:17:37;;;;;;;1999.90;999.90;;;24.20;82.40;;;;;;6697574;88;20190;-76
2023/07/03 14:27:39;;;;;;;1999.90;999.90;;;24.90;82.70;;;;;;6696415;88;20208;-77
2023/07/03 14:37:39;;;;;;;1999.90;999.90;;;25.10;82.10;;;;;;6698680;88;20207;-77
2023/07/03 14:47:40;;;;;;;1999.90;999.90;;;24.60;82.70;;;;;;6699699;88;20325;-76
2023/07/03 14:57:41;;;;;;;1999.90;999.90;;;23.80;83.80;;;;;;6699176;88;20635;-76
2023/07/03 15:07:42;;;;;;;1999.90;999.90;;;23.50;85.40;;;;;;6700063;88;20261;-77
2023/07/03 15:17:43;;;;;;;1999.90;999.90;;;24.00;85.60;;;;;;6700207;88;20229;-77
2023/07/03 15:27:43;;;;;;;1999.90;999.90;;;24.90;85.10;;;;;;6707398;88;20960;-77
2023/07/03 15:37:44;;;;;;;1999.90;999.90;;;24.60;85.30;;;;;;6699412;88;20207;-77
2023/07/03 15:47:44;;;;;;;1999.90;999.90;;;24.40;86.10;;;;;;6696793;88;20635;-77
2023/07/03 15:57:45;;;;;;;1999.90;999.90;;;24.30;86.80;;;;;;6701286;88;20183;-76
2023/07/03 16:08:06;;;;;;;1999.90;999.90;;;24.30;85.90;;;;;;6698619;88;20175;-75
2023/07/03 16:18:07;;;;;;;1999.90;999.90;;;24.30;85.10;;;;;;6686933;88;20207;-78
2023/07/03 16:28:08;;;;;;;1999.90;999.90;;;23.90;86.10;;;;;;6691366;88;20186;-78
2023/07/03 16:38:10;;;;;;;1999.90;999.90;;;23.70;87.30;;;;;;6691862;88;20312;-79
2023/07/03 16:48:10;;;;;;;1999.90;999.90;;;24.20;87.10;;;;;;6690481;88;20510;-78
2023/07/03 16:58:11;;;;;;;1999.90;999.90;;;24.60;86.20;;;;;;6691211;88;20197;-78
2023/07/03 17:08:11;;;;;;;1999.90;999.90;;;25.10;84.00;;;;;;6695517;88;20184;-78
2023/07/03 17:18:12;;;;;;;1999.90;999.90;;;25.20;85.10;;;;;;6693509;88;20205;-79
2023/07/03 17:28:12;;;;;;;1999.90;999.90;;;24.40;86.40;;;;;;6692595;88;20237;-79
2023/07/03 17:38:14;;;;;;;1999.90;999.90;;;24.60;87.40;;;;;;6689700;88;20242;-78
2023/07/03 17:48:15;;;;;;;1999.90;999.90;;;24.50;86.40;;;;;;6686239;88;20324;-78
2023/07/03 17:58:15;;;;;;;1999.90;999.90;;;23.90;87.20;;;;;;6696660;88;20183;-78
2023/07/03 18:08:16;;;;;;;1999.90;999.90;;;23.70;87.50;;;;;;6685623;88;20506;-78
2023/07/03 18:18:19;;;;;;;1999.90;999.90;;;23.90;88.20;;;;;;6687999;88;20198;-79
2023/07/03 18:28:19;;;;;;;1999.90;999.90;;;23.50;88.40;;;;;;6686948;88;20229;-78
2023/07/03 18:38:20;;;;;;;1999.90;999.90;;;23.10;89.50;;;;;;6686696;88;20268;-79
2023/07/03 18:48:21;;;;;;;1999.90;999.90;;;22.70;89.60;;;;;;6685975;88;20195;-81
2023/07/03 18:58:21;;;;;;;1999.90;999.90;;;22.40;90.10;;;;;;6702819;88;20219;-80
2023/07/03 19:08:22;;;;;;;1999.90;999.90;;;22.20;90.30;;;;;;6694540;88;20221;-79
2023/07/03 19:18:23;;;;;;;1999.90;999.90;;;21.90;90.40;;;;;;6698355;88;20279;-80
2023/07/03 19:28:25;;;;;;;1999.90;999.90;;;21.60;91.10;;;;;;6706399;88;21068;-80
2023/07/03 19:38:26;;;;;;;1999.90;999.90;;;21.30;91.30;;;;;;6688363;88;20212;-79
2023/07/03 19:48:27;;;;;;;1999.90;999.90;;;21.10;91.00;;;;;;6689189;88;20203;-78
2023/07/03 19:58:30;;;;;;;1999.90;999.90;;;20.80;91.30;;;;;;6682591;88;20209;-80
2023/07/03 20:08:31;;;;;;;1999.90;999.90;;;20.50;91.70;;;;;;6697934;88;20214;-80
2023/07/03 20:18:33;;;;;;;1999.90;999.90;;;20.40;92.00;;;;;;6700335;88;20829;-80
2023/07/03 20:28:34;;;;;;;1999.90;999.90;;;20.10;92.40;;;;;;6698560;88;20289;-79
2023/07/03 20:38:35;;;;;;;1999.90;999.90;;;19.90;92.90;;;;;;6698818;88;20190;-79
2023/07/03 20:48:39;;;;;;;1999.90;999.90;;;19.70;93.60;;;;;;6681428;88;20969;-79
2023/07/03 20:58:42;;;;;;;1999.90;999.90;;;19.60;94.00;;;;;;6692682;88;20213;-79
2023/07/03 21:08:43;;;;;;;1999.90;999.90;;;19.30;94.80;;;;;;6692765;88;20191;-79
2023/07/03 21:18:44;;;;;;;1999.90;999.90;;;19.10;95.40;;;;;;6692789;88;20680;-78
2023/07/03 21:28:46;;;;;;;1999.90;999.90;;;18.90;96.70;;;;;;6694709;88;20202;-79
2023/07/03 21:38:48;;;;;;;1999.90;999.90;;;18.70;98.40;;;;;;6697033;88;20202;-79
2023/07/03 21:48:52;;;;;;;1999.90;999.90;;;18.70;99.40;;;;;;6693732;88;20223;-79
2023/07/03 21:58:56;;;;;;;1999.90;999.90;;;18.30;99.90;;;;;;6695486;88;20187;-80
2023/07/03 22:09:03;;;;;;;1999.90;999.90;;;18.20;99.90;;;;;;6694754;77;20611;31
2023/07/03 22:19:04;;;;;;;1999.90;999.90;;;18.00;99.90;;;;;;6623601;89;20193;-78
2023/07/03 22:29:04;;;;;;;1999.90;999.90;;;17.90;99.90;;;;;;6608262;89;20788;-77
2023/07/03 22:39:05;;;;;;;1999.90;999.90;;;17.80;99.90;;;;;;6609426;89;20212;-78
2023/07/03 22:49:05;;;;;;;1999.90;999.90;;;17.50;99.90;;;;;;6612282;89;20226;-77
2023/07/03 22:59:06;;;;;;;1999.90;999.90;;;17.30;99.90;;;;;;6612325;89;20218;-80
2023/07/03 23:09:08;;;;;;;1999.90;999.90;;;16.90;99.90;;;;;;6602792;89;20326;-79
2023/07/03 23:19:08;;;;;;;1999.90;999.90;;;16.50;99.90;;;;;;6693903;88;20214;-78
2023/07/03 23:29:09;;;;;;;1999.90;999.90;;;16.30;99.90;;;;;;6678566;88;20658;-78
2023/07/03 23:39:10;;;;;;;1999.90;999.90;;;16.30;99.90;;;;;;6695545;88;20269;-78
2023/07/03 23:49:10;;;;;;;1999.90;999.90;;;16.20;99.90;;;;;;6693269;88;20245;-77
2023/07/03 23:59:11;;;;;;;1999.90;999.90;;;16.10;99.90;;;;;;6692916;88;20235;-78
